createdAt,value
2018-04-28T00:00:06.244Z,0
2018-04-28T00:01:06.486Z,0
2018-04-28T00:02:05.949Z,0
2018-04-28T00:03:06.211Z,0
2018-04-28T00:04:05.909Z,0
2018-04-28T00:05:06.151Z,0
2018-04-28T00:06:05.615Z,0
2018-04-28T00:07:06.121Z,0
2018-04-28T00:08:06.276Z,0
2018-04-28T00:09:05.789Z,0
2018-04-28T00:10:05.550Z,0
2018-04-28T00:11:06.079Z,0
2018-04-28T00:12:06.049Z,0
2018-04-28T00:13:05.764Z,0
2018-04-28T00:14:05.747Z,0
2018-04-28T00:15:06.007Z,0
2018-04-28T00:16:05.999Z,0
2018-04-28T00:17:05.715Z,0
2018-04-28T00:18:05.705Z,0
2018-04-28T00:19:05.749Z,0
2018-04-28T00:20:05.663Z,0
2018-04-28T00:21:05.645Z,0
2018-04-28T00:22:05.631Z,0
2018-04-28T00:23:05.616Z,0
2018-04-28T00:24:05.335Z,0
2018-04-28T00:25:05.321Z,0
2018-04-28T00:26:05.301Z,0
2018-04-28T00:27:05.282Z,0
2018-04-28T00:28:05.020Z,0
2018-04-28T00:29:05.779Z,0
2018-04-28T00:30:05.507Z,0
2018-04-28T00:31:05.228Z,0
2018-04-28T00:32:05.746Z,0
2018-04-28T00:33:05.195Z,0
2018-04-28T00:34:05.182Z,0
2018-04-28T00:35:05.690Z,0
2018-04-28T00:36:04.881Z,0
2018-04-28T00:37:05.673Z,0
2018-04-28T00:38:05.378Z,0
2018-04-28T00:39:05.365Z,0
2018-04-28T00:40:05.097Z,0
2018-04-28T00:41:05.068Z,0
2018-04-28T00:42:05.325Z,0
2018-04-28T00:43:05.837Z,0
2018-04-28T00:44:05.028Z,0
2018-04-28T00:45:05.538Z,0
2018-04-28T00:46:04.993Z,0
2018-04-28T00:47:05.244Z,0
2018-04-28T00:48:05.309Z,0
2018-04-28T00:49:05.435Z,0
2018-04-28T00:50:05.923Z,0
2018-04-28T00:51:05.442Z,0
2018-04-28T00:52:04.898Z,0
2018-04-28T00:53:05.164Z,0
2018-04-28T00:54:04.876Z,0
2018-04-28T00:55:04.858Z,0
2018-04-28T00:56:05.374Z,0
2018-04-28T00:57:05.100Z,0
2018-04-28T00:58:05.604Z,0
2018-04-28T00:59:05.062Z,0
2018-04-28T01:00:04.775Z,0
2018-04-28T01:01:04.755Z,0
2018-04-28T01:02:05.018Z,0
2018-04-28T01:03:05.003Z,0
2018-04-28T01:04:04.989Z,0
2018-04-28T01:05:04.986Z,0
2018-04-28T01:06:04.417Z,0
2018-04-28T01:07:05.195Z,0
2018-04-28T01:08:04.912Z,0
2018-04-28T01:09:05.439Z,0
2018-04-28T01:10:04.925Z,0
2018-04-28T01:11:04.864Z,0
2018-04-28T01:12:05.121Z,0
2018-04-28T01:13:05.105Z,0
2018-04-28T01:14:05.370Z,0
2018-04-28T01:15:05.081Z,0
2018-04-28T01:16:04.794Z,0
2018-04-28T01:17:05.054Z,0
2018-04-28T01:18:05.492Z,0
2018-04-28T01:19:05.012Z,0
2018-04-28T01:20:05.001Z,0
2018-04-28T01:21:04.458Z,0
2018-04-28T01:22:04.704Z,0
2018-04-28T01:23:04.689Z,0
2018-04-28T01:24:04.680Z,0
2018-04-28T01:25:04.658Z,0
2018-04-28T01:26:04.636Z,0
2018-04-28T01:27:04.361Z,0
2018-04-28T01:28:04.353Z,0
2018-04-28T01:29:04.327Z,0
2018-04-28T01:30:05.358Z,0
2018-04-28T01:31:04.555Z,0
2018-04-28T01:32:04.807Z,0
2018-04-28T01:33:04.796Z,0
2018-04-28T01:34:04.804Z,0
2018-04-28T01:35:03.969Z,0
2018-04-28T01:36:04.761Z,0
2018-04-28T01:37:04.209Z,0
2018-04-28T01:38:04.507Z,0
2018-04-28T01:39:04.971Z,0
2018-04-28T01:40:04.426Z,0
2018-04-28T01:41:04.147Z,0
2018-04-28T01:42:04.418Z,0
2018-04-28T01:43:04.647Z,0
2018-04-28T01:44:04.635Z,0
2018-04-28T01:45:04.882Z,0
2018-04-28T01:46:04.070Z,0
2018-04-28T01:47:03.791Z,0
2018-04-28T01:48:04.925Z,0
2018-04-28T01:49:04.561Z,0
2018-04-28T01:50:04.545Z,0
2018-04-28T01:51:03.737Z,0
2018-04-28T01:52:03.990Z,0
2018-04-28T01:53:04.241Z,0
2018-04-28T01:54:03.949Z,0
2018-04-28T01:55:04.480Z,0
2018-04-28T01:56:04.205Z,0
2018-04-28T01:57:04.439Z,0
2018-04-28T01:58:03.890Z,0
2018-04-28T01:59:03.615Z,0
2018-04-28T02:00:04.129Z,0
2018-04-28T02:01:04.386Z,0
2018-04-28T02:02:03.565Z,0
2018-04-28T02:03:03.831Z,0
2018-04-28T02:04:04.616Z,0
2018-04-28T02:05:04.323Z,0
2018-04-28T02:06:04.305Z,0
2018-04-28T02:07:04.028Z,0
2018-04-28T02:08:04.584Z,0
2018-04-28T02:09:04.530Z,0
2018-04-28T02:10:04.251Z,0
2018-04-28T02:11:04.516Z,0
2018-04-28T02:12:04.490Z,0
2018-04-28T02:13:03.941Z,0
2018-04-28T02:14:03.923Z,0
2018-04-28T02:15:03.914Z,0
2018-04-28T02:16:04.157Z,0
2018-04-28T02:17:03.352Z,0
2018-04-28T02:18:03.879Z,0
2018-04-28T02:19:04.115Z,0
2018-04-28T02:20:03.840Z,0
2018-04-28T02:21:04.095Z,0
2018-04-28T02:22:03.812Z,0
2018-04-28T02:23:03.523Z,0
2018-04-28T02:24:03.508Z,0
2018-04-28T02:25:03.752Z,0
2018-04-28T02:26:03.741Z,0
2018-04-28T02:27:03.985Z,0
2018-04-28T02:28:03.713Z,0
2018-04-28T02:29:03.981Z,0
2018-04-28T02:30:03.154Z,0
2018-04-28T02:31:03.402Z,0
2018-04-28T02:32:03.392Z,0
2018-04-28T02:33:03.910Z,0
2018-04-28T02:34:03.948Z,0
2018-04-28T02:35:03.613Z,0
2018-04-28T02:36:03.857Z,0
2018-04-28T02:37:04.122Z,0
2018-04-28T02:38:03.594Z,0
2018-04-28T02:39:04.104Z,0
2018-04-28T02:40:03.533Z,0
2018-04-28T02:41:03.518Z,0
2018-04-28T02:42:03.237Z,0
2018-04-28T02:43:03.762Z,0
2018-04-28T02:44:03.476Z,0
2018-04-28T02:45:03.460Z,0
2018-04-28T02:46:03.186Z,0
2018-04-28T02:47:03.721Z,0
2018-04-28T02:48:03.799Z,0
2018-04-28T02:49:03.145Z,0
2018-04-28T02:50:03.419Z,0
2018-04-28T02:51:03.365Z,0
2018-04-28T02:52:03.902Z,0
2018-04-28T02:53:03.878Z,0
2018-04-28T02:54:03.579Z,0
2018-04-28T02:55:03.320Z,0
2018-04-28T02:56:03.302Z,0
2018-04-28T02:57:03.293Z,0
2018-04-28T02:58:03.263Z,0
2018-04-28T02:59:02.987Z,0
2018-04-28T03:00:03.233Z,0
2018-04-28T03:01:03.477Z,0
2018-04-28T03:02:02.938Z,0
2018-04-28T03:03:03.391Z,0
2018-04-28T03:04:03.441Z,0
2018-04-28T03:05:03.166Z,0
2018-04-28T03:06:02.875Z,0
2018-04-28T03:07:03.668Z,0
2018-04-28T03:08:02.841Z,0
2018-04-28T03:09:02.845Z,0
2018-04-28T03:10:02.833Z,0
2018-04-28T03:11:03.084Z,0
2018-04-28T03:12:02.803Z,0
2018-04-28T03:13:03.320Z,0
2018-04-28T03:14:02.492Z,0
2018-04-28T03:15:03.064Z,0
2018-04-28T03:16:03.253Z,0
2018-04-28T03:17:03.504Z,0
2018-04-28T03:18:02.750Z,0
2018-04-28T03:19:02.955Z,0
2018-04-28T03:20:03.244Z,0
2018-04-28T03:21:02.917Z,0
2018-04-28T03:22:02.900Z,0
2018-04-28T03:23:03.211Z,0
2018-04-28T03:24:03.425Z,0
2018-04-28T03:25:02.855Z,0
2018-04-28T03:26:02.572Z,0
2018-04-28T03:27:02.824Z,0
2018-04-28T03:28:02.540Z,0
2018-04-28T03:29:02.787Z,0
2018-04-28T03:30:02.560Z,0
2018-04-28T03:31:03.383Z,0
2018-04-28T03:32:02.486Z,0
2018-04-28T03:33:02.729Z,0
2018-04-28T03:34:02.717Z,0
2018-04-28T03:35:02.709Z,0
2018-04-28T03:36:02.417Z,0
2018-04-28T03:37:02.938Z,0
2018-04-28T03:38:03.182Z,0
2018-04-28T03:39:02.910Z,0
2018-04-28T03:40:02.629Z,0
2018-04-28T03:41:03.130Z,0
2018-04-28T03:42:03.116Z,0
2018-04-28T03:43:02.851Z,0
2018-04-28T03:44:02.560Z,0
2018-04-28T03:45:02.540Z,0
2018-04-28T03:46:03.059Z,0
2018-04-28T03:47:02.245Z,0
2018-04-28T03:48:03.028Z,0
2018-04-28T03:49:02.218Z,0
2018-04-28T03:50:02.202Z,0
2018-04-28T03:51:02.798Z,0
2018-04-28T03:52:02.706Z,0
2018-04-28T03:53:02.687Z,0
2018-04-28T03:54:02.677Z,0
2018-04-28T03:55:02.656Z,0
2018-04-28T03:56:02.392Z,0
2018-04-28T03:57:02.102Z,0
2018-04-28T03:58:02.640Z,0
2018-04-28T03:59:01.799Z,0
2018-04-28T04:00:02.571Z,0
2018-04-28T04:01:02.298Z,0
2018-04-28T04:02:02.815Z,0
2018-04-28T04:03:02.000Z,0
2018-04-28T04:04:02.523Z,0
2018-04-28T04:05:02.498Z,0
2018-04-28T04:06:01.693Z,0
2018-04-28T04:07:02.204Z,0
2018-04-28T04:08:02.723Z,0
2018-04-28T04:09:02.183Z,0
2018-04-28T04:10:02.432Z,5
2018-04-28T04:11:02.682Z,5
2018-04-28T04:12:02.161Z,5
2018-04-28T04:13:01.861Z,5
2018-04-28T04:14:02.105Z,5
2018-04-28T04:15:02.085Z,5
2018-04-28T04:16:01.854Z,5
2018-04-28T04:17:01.788Z,5
2018-04-28T04:18:02.052Z,5
2018-04-28T04:19:02.033Z,10
2018-04-28T04:20:02.280Z,10
2018-04-28T04:21:02.251Z,10
2018-04-28T04:22:02.504Z,10
2018-04-28T04:23:01.731Z,10
2018-04-28T04:24:02.480Z,15
2018-04-28T04:25:01.927Z,15
2018-04-28T04:26:02.220Z,15
2018-04-28T04:27:02.257Z,15
2018-04-28T04:28:02.151Z,15
2018-04-28T04:29:01.956Z,15
2018-04-28T04:30:02.118Z,15
2018-04-28T04:31:02.104Z,20
2018-04-28T04:32:01.360Z,20
2018-04-28T04:33:01.272Z,20
2018-04-28T04:34:01.790Z,20
2018-04-28T04:35:01.507Z,20
2018-04-28T04:36:01.760Z,20
2018-04-28T04:37:01.748Z,20
2018-04-28T04:38:01.725Z,20
2018-04-28T04:39:01.976Z,25
2018-04-28T04:40:01.959Z,25
2018-04-28T04:41:01.962Z,25
2018-04-28T04:42:02.196Z,25
2018-04-28T04:43:01.908Z,25
2018-04-28T04:44:01.915Z,25
2018-04-28T04:45:01.890Z,30
2018-04-28T04:46:01.072Z,30
2018-04-28T04:47:01.857Z,30
2018-04-28T04:48:01.841Z,30
2018-04-28T04:49:02.089Z,30
2018-04-28T04:50:01.765Z,35
2018-04-28T04:51:01.270Z,35
2018-04-28T04:52:01.512Z,35
2018-04-28T04:53:01.491Z,35
2018-04-28T04:54:01.752Z,35
2018-04-28T04:55:01.197Z,35
2018-04-28T04:56:01.977Z,35
2018-04-28T04:57:01.439Z,40
2018-04-28T04:58:01.700Z,40
2018-04-28T04:59:01.406Z,40
2018-04-28T05:00:01.134Z,40
2018-04-28T05:01:01.503Z,40
2018-04-28T05:02:01.362Z,45
2018-04-28T05:03:01.630Z,45
2018-04-28T05:04:01.067Z,45
2018-04-28T05:05:01.317Z,45
2018-04-28T05:06:01.566Z,45
2018-04-28T05:07:01.297Z,45
2018-04-28T05:08:01.276Z,45
2018-04-28T05:09:01.777Z,45
2018-04-28T05:10:01.545Z,50
2018-04-28T05:11:01.832Z,50
2018-04-28T05:12:01.471Z,50
2018-04-28T05:13:01.187Z,50
2018-04-28T05:14:01.708Z,50
2018-04-28T05:15:00.900Z,50
2018-04-28T05:16:00.880Z,50
2018-04-28T05:17:00.867Z,50
2018-04-28T05:18:01.393Z,55
2018-04-28T05:19:01.373Z,55
2018-04-28T05:20:01.087Z,55
2018-04-28T05:21:01.407Z,55
2018-04-28T05:22:00.800Z,55
2018-04-28T05:23:01.300Z,60
2018-04-28T05:24:01.640Z,60
2018-04-28T05:25:01.298Z,60
2018-04-28T05:26:01.031Z,65
2018-04-28T05:27:01.271Z,65
2018-04-28T05:28:00.974Z,65
2018-04-28T05:29:01.261Z,65
2018-04-28T05:30:00.691Z,70
2018-04-28T05:31:00.924Z,70
2018-04-28T05:32:01.490Z,70
2018-04-28T05:33:01.424Z,70
2018-04-28T05:34:00.912Z,70
2018-04-28T05:35:01.352Z,70
2018-04-28T05:36:01.027Z,75
2018-04-28T05:37:00.841Z,75
2018-04-28T05:38:00.817Z,75
2018-04-28T05:39:01.075Z,75
2018-04-28T05:40:00.791Z,80
2018-04-28T05:41:01.047Z,80
2018-04-28T05:42:00.796Z,90
2018-04-28T05:43:01.315Z,90
2018-04-28T05:44:00.763Z,95
2018-04-28T05:45:00.949Z,95
2018-04-28T05:46:00.716Z,100
2018-04-28T05:47:00.435Z,100
2018-04-28T05:48:01.010Z,105
2018-04-28T05:49:00.402Z,110
2018-04-28T05:50:00.952Z,110
2018-04-28T05:51:00.645Z,115
2018-04-28T05:52:00.921Z,115
2018-04-28T05:53:00.098Z,115
2018-04-28T05:54:00.910Z,115
2018-04-28T05:55:01.156Z,110
2018-04-28T05:56:01.070Z,110
2018-04-28T05:57:00.024Z,105
2018-04-28T05:58:00.704Z,100
2018-04-28T05:59:00.797Z,100
2018-04-28T06:00:00.506Z,100
2018-04-28T06:01:01.039Z,100
2018-04-28T06:01:59.950Z,100
2018-04-28T06:03:00.732Z,105
2018-04-28T06:04:00.188Z,105
2018-04-28T06:05:00.443Z,110
2018-04-28T06:06:00.438Z,110
2018-04-28T06:07:00.457Z,110
2018-04-28T06:08:00.669Z,110
2018-04-28T06:09:00.132Z,115
2018-04-28T06:10:00.103Z,115
2018-04-28T06:11:00.353Z,115
2018-04-28T06:12:00.068Z,115
2018-04-28T06:13:00.612Z,115
2018-04-28T06:14:00.592Z,120
2018-04-28T06:15:00.308Z,130
2018-04-28T06:16:00.552Z,130
2018-04-28T06:17:00.279Z,135
2018-04-28T06:18:00.530Z,135
2018-04-28T06:19:00.781Z,135
2018-04-28T06:19:59.785Z,140
2018-04-28T06:21:00.226Z,135
2018-04-28T06:22:00.212Z,135
2018-04-28T06:23:00.466Z,140
2018-04-28T06:24:00.181Z,145
2018-04-28T06:25:00.163Z,150
2018-04-28T06:26:00.322Z,145
2018-04-28T06:26:59.876Z,135
2018-04-28T06:28:00.396Z,130
2018-04-28T06:28:59.586Z,125
2018-04-28T06:30:00.368Z,125
2018-04-28T06:30:59.825Z,125
2018-04-28T06:32:00.085Z,120
2018-04-28T06:33:00.338Z,125
2018-04-28T06:34:00.314Z,135
2018-04-28T06:35:00.060Z,140
2018-04-28T06:36:00.119Z,135
2018-04-28T06:37:00.311Z,135
2018-04-28T06:37:59.735Z,135
2018-04-28T06:38:59.990Z,130
2018-04-28T06:40:00.235Z,125
2018-04-28T06:40:59.970Z,130
2018-04-28T06:42:00.215Z,130
2018-04-28T06:42:59.931Z,130
2018-04-28T06:43:59.682Z,130
2018-04-28T06:44:59.905Z,135
2018-04-28T06:45:59.644Z,135
2018-04-28T06:46:59.880Z,135
2018-04-28T06:47:59.613Z,150
2018-04-28T06:48:59.593Z,145
2018-04-28T06:50:00.106Z,145
2018-04-28T06:51:00.176Z,145
2018-04-28T06:52:00.081Z,140
2018-04-28T06:52:59.543Z,140
2018-04-28T06:53:59.790Z,135
2018-04-28T06:54:59.514Z,135
2018-04-28T06:55:59.503Z,130
2018-04-28T06:56:59.756Z,115
2018-04-28T06:57:59.471Z,120
2018-04-28T06:58:59.989Z,125
2018-04-28T06:59:59.976Z,125
2018-04-28T07:00:59.970Z,130
2018-04-28T07:01:59.952Z,130
2018-04-28T07:02:59.674Z,135
2018-04-28T07:03:59.658Z,145
2018-04-28T07:05:00.179Z,155
2018-04-28T07:05:59.632Z,160
2018-04-28T07:07:00.158Z,165
2018-04-28T07:07:59.615Z,175
2018-04-28T07:08:59.870Z,175
2018-04-28T07:09:59.860Z,185
2018-04-28T07:10:59.431Z,195
2018-04-28T07:11:59.815Z,185
2018-04-28T07:12:59.282Z,165
2018-04-28T07:13:59.537Z,155
2018-04-28T07:14:59.805Z,140
2018-04-28T07:15:59.509Z,125
2018-04-28T07:16:59.497Z,120
2018-04-28T07:17:59.230Z,125
2018-04-28T07:18:59.201Z,135
2018-04-28T07:19:59.729Z,135
2018-04-28T07:20:59.809Z,140
2018-04-28T07:21:59.243Z,140
2018-04-28T07:22:59.417Z,150
2018-04-28T07:23:59.407Z,150
2018-04-28T07:24:59.396Z,155
2018-04-28T07:25:59.114Z,165
2018-04-28T07:26:59.376Z,185
2018-04-28T07:27:59.364Z,200
2018-04-28T07:28:59.607Z,200
2018-04-28T07:29:59.603Z,210
2018-04-28T07:30:59.052Z,240
2018-04-28T07:31:59.036Z,270
2018-04-28T07:32:59.569Z,275
2018-04-28T07:33:59.309Z,275
2018-04-28T07:34:58.740Z,275
2018-04-28T07:35:59.253Z,280
2018-04-28T07:36:59.499Z,275
2018-04-28T07:37:59.237Z,275
2018-04-28T07:38:59.215Z,270
2018-04-28T07:39:59.473Z,255
2018-04-28T07:40:59.719Z,225
2018-04-28T07:41:59.187Z,215
2018-04-28T07:42:59.450Z,205
2018-04-28T07:43:58.628Z,190
2018-04-28T07:44:59.409Z,175
2018-04-28T07:45:58.876Z,155
2018-04-28T07:46:59.129Z,145
2018-04-28T07:47:59.376Z,135
2018-04-28T07:48:59.367Z,130
2018-04-28T07:49:59.089Z,140
2018-04-28T07:50:59.359Z,155
2018-04-28T07:51:59.072Z,170
2018-04-28T07:52:59.579Z,180
2018-04-28T07:53:59.352Z,185
2018-04-28T07:54:58.762Z,185
2018-04-28T07:55:58.761Z,185
2018-04-28T07:56:59.015Z,175
2018-04-28T07:57:58.939Z,170
2018-04-28T07:58:58.989Z,185
2018-04-28T07:59:58.982Z,205
2018-04-28T08:00:58.968Z,225
2018-04-28T08:01:58.944Z,230
2018-04-28T08:02:58.672Z,225
2018-04-28T08:03:58.929Z,225
2018-04-28T08:04:58.917Z,235
2018-04-28T08:05:58.915Z,250
2018-04-28T08:06:59.469Z,260
2018-04-28T08:07:59.203Z,260
2018-04-28T08:08:58.603Z,270
2018-04-28T08:09:59.128Z,280
2018-04-28T08:10:59.118Z,275
2018-04-28T08:11:58.821Z,290
2018-04-28T08:12:58.902Z,310
2018-04-28T08:13:59.341Z,325
2018-04-28T08:14:58.799Z,305
2018-04-28T08:15:58.782Z,320
2018-04-28T08:16:58.773Z,335
2018-04-28T08:17:59.342Z,360
2018-04-28T08:18:59.284Z,340
2018-04-28T08:19:58.749Z,370
2018-04-28T08:20:59.006Z,405
2018-04-28T08:21:58.986Z,340
2018-04-28T08:22:58.724Z,415
2018-04-28T08:23:58.440Z,325
2018-04-28T08:24:58.421Z,290
2018-04-28T08:25:58.669Z,275
2018-04-28T08:26:58.760Z,280
2018-04-28T08:27:58.919Z,240
2018-04-28T08:28:58.906Z,210
2018-04-28T08:29:58.371Z,210
2018-04-28T08:30:58.631Z,215
2018-04-28T08:31:58.618Z,230
2018-04-28T08:32:58.943Z,245
2018-04-28T08:33:58.596Z,255
2018-04-28T08:34:58.316Z,240
2018-04-28T08:35:58.577Z,250
2018-04-28T08:36:59.488Z,265
2018-04-28T08:37:58.553Z,285
2018-04-28T08:38:58.809Z,290
2018-04-28T08:39:58.804Z,290
2018-04-28T08:40:58.788Z,280
2018-04-28T08:41:58.509Z,265
2018-04-28T08:42:58.232Z,265
2018-04-28T08:43:58.493Z,275
2018-04-28T08:44:58.742Z,280
2018-04-28T08:45:58.739Z,300
2018-04-28T08:46:58.450Z,315
2018-04-28T08:47:58.445Z,325
2018-04-28T08:48:58.706Z,315
2018-04-28T08:49:58.404Z,320
2018-04-28T08:50:58.219Z,295
2018-04-28T08:51:58.402Z,300
2018-04-28T08:52:58.388Z,315
2018-04-28T08:53:58.596Z,345
2018-04-28T08:54:58.107Z,410
2018-04-28T08:55:57.839Z,355
2018-04-28T08:56:58.892Z,405
2018-04-28T08:57:58.072Z,445
2018-04-28T08:58:58.065Z,440
2018-04-28T08:59:58.586Z,420
2018-04-28T09:00:58.579Z,430
2018-04-28T09:01:58.559Z,415
2018-04-28T09:02:58.289Z,360
2018-04-28T09:03:58.170Z,355
2018-04-28T09:04:57.999Z,400
2018-04-28T09:05:58.808Z,455
2018-04-28T09:06:57.980Z,480
2018-04-28T09:07:57.974Z,400
2018-04-28T09:08:58.228Z,380
2018-04-28T09:09:58.493Z,405
2018-04-28T09:10:58.480Z,410
2018-04-28T09:11:58.464Z,380
2018-04-28T09:12:58.497Z,360
2018-04-28T09:13:58.442Z,385
2018-04-28T09:14:57.907Z,380
2018-04-28T09:15:58.172Z,385
2018-04-28T09:16:57.891Z,420
2018-04-28T09:17:58.139Z,445
2018-04-28T09:18:58.401Z,430
2018-04-28T09:19:58.119Z,450
2018-04-28T09:20:58.394Z,450
2018-04-28T09:21:58.371Z,320
2018-04-28T09:22:58.628Z,310
2018-04-28T09:23:58.083Z,300
2018-04-28T09:24:58.426Z,255
2018-04-28T09:25:58.337Z,220
2018-04-28T09:26:57.817Z,215
2018-04-28T09:27:58.068Z,255
2018-04-28T09:28:58.313Z,335
2018-04-28T09:29:58.299Z,385
2018-04-28T09:30:58.019Z,365
2018-04-28T09:31:58.277Z,380
2018-04-28T09:32:58.368Z,410
2018-04-28T09:33:57.991Z,415
2018-04-28T09:34:57.716Z,400
2018-04-28T09:35:58.236Z,395
2018-04-28T09:36:57.961Z,380
2018-04-28T09:37:57.708Z,380
2018-04-28T09:38:58.474Z,330
2018-04-28T09:39:57.453Z,285
2018-04-28T09:40:57.951Z,255
2018-04-28T09:41:57.656Z,235
2018-04-28T09:42:57.904Z,240
2018-04-28T09:43:57.370Z,235
2018-04-28T09:44:58.153Z,220
2018-04-28T09:45:58.428Z,200
2018-04-28T09:46:58.150Z,200
2018-04-28T09:47:58.390Z,235
2018-04-28T09:48:58.130Z,260
2018-04-28T09:49:58.099Z,295
2018-04-28T09:50:57.830Z,315
2018-04-28T09:51:58.090Z,340
2018-04-28T09:52:58.075Z,365
2018-04-28T09:53:57.280Z,355
2018-04-28T09:54:57.539Z,315
2018-04-28T09:55:58.060Z,270
2018-04-28T09:56:57.767Z,255
2018-04-28T09:57:57.760Z,235
2018-04-28T09:58:57.892Z,215
2018-04-28T09:59:57.745Z,195
2018-04-28T10:00:57.737Z,190
2018-04-28T10:01:57.476Z,195
2018-04-28T10:02:57.990Z,195
2018-04-28T10:03:57.706Z,180
2018-04-28T10:04:57.442Z,170
2018-04-28T10:05:57.902Z,155
2018-04-28T10:06:57.413Z,180
2018-04-28T10:07:57.673Z,205
2018-04-28T10:08:57.929Z,225
2018-04-28T10:09:57.382Z,250
2018-04-28T10:10:57.901Z,295
2018-04-28T10:11:57.905Z,315
2018-04-28T10:12:58.019Z,320
2018-04-28T10:13:57.599Z,360
2018-04-28T10:14:57.591Z,435
2018-04-28T10:15:58.114Z,510
2018-04-28T10:16:57.574Z,520
2018-04-28T10:17:58.112Z,430
2018-04-28T10:18:57.298Z,370
2018-04-28T10:19:57.549Z,290
2018-04-28T10:20:57.931Z,285
2018-04-28T10:21:58.188Z,295
2018-04-28T10:22:58.161Z,310
2018-04-28T10:23:57.403Z,335
2018-04-28T10:24:57.655Z,405
2018-04-28T10:25:58.020Z,400
2018-04-28T10:26:57.211Z,355
2018-04-28T10:27:58.550Z,345
2018-04-28T10:28:57.468Z,295
2018-04-28T10:29:57.448Z,290
2018-04-28T10:30:57.568Z,305
2018-04-28T10:31:57.434Z,360
2018-04-28T10:32:57.425Z,385
2018-04-28T10:33:57.945Z,435
2018-04-28T10:34:57.716Z,425
2018-04-28T10:35:57.389Z,425
2018-04-28T10:36:57.891Z,370
2018-04-28T10:37:57.504Z,280
2018-04-28T10:38:57.103Z,240
2018-04-28T10:39:57.168Z,200
2018-04-28T10:40:57.636Z,195
2018-04-28T10:41:57.331Z,190
2018-04-28T10:42:57.582Z,185
2018-04-28T10:43:57.844Z,200
2018-04-28T10:44:57.305Z,215
2018-04-28T10:45:57.833Z,240
2018-04-28T10:46:57.027Z,285
2018-04-28T10:47:57.275Z,250
2018-04-28T10:48:58.753Z,210
2018-04-28T10:49:58.635Z,170
2018-04-28T10:50:57.791Z,165
2018-04-28T10:51:57.500Z,170
2018-04-28T10:52:57.752Z,165
2018-04-28T10:53:57.255Z,150
2018-04-28T10:54:57.627Z,150
2018-04-28T10:55:57.202Z,165
2018-04-28T10:56:57.181Z,205
2018-04-28T10:57:56.915Z,255
2018-04-28T10:58:57.160Z,370
2018-04-28T10:59:57.155Z,255
2018-04-28T11:00:57.147Z,205
2018-04-28T11:01:57.408Z,170
2018-04-28T11:02:57.403Z,160
2018-04-28T11:03:57.119Z,160
2018-04-28T11:04:57.378Z,200
2018-04-28T11:05:57.632Z,295
2018-04-28T11:06:57.619Z,420
2018-04-28T11:07:56.820Z,425
2018-04-28T11:08:57.335Z,435
2018-04-28T11:09:57.079Z,500
2018-04-28T11:10:56.784Z,565
2018-04-28T11:11:57.302Z,455
2018-04-28T11:12:57.031Z,455
2018-04-28T11:13:57.329Z,480
2018-04-28T11:14:56.484Z,405
2018-04-28T11:15:56.739Z,335
2018-04-28T11:16:56.738Z,285
2018-04-28T11:17:57.258Z,320
2018-04-28T11:18:57.508Z,405
2018-04-28T11:19:57.121Z,500
2018-04-28T11:20:57.215Z,560
2018-04-28T11:21:56.951Z,635
2018-04-28T11:22:57.214Z,540
2018-04-28T11:23:56.934Z,625
2018-04-28T11:24:57.451Z,590
2018-04-28T11:25:56.664Z,550
2018-04-28T11:26:56.637Z,515
2018-04-28T11:27:57.170Z,650
2018-04-28T11:28:57.149Z,455
2018-04-28T11:29:56.918Z,365
2018-04-28T11:30:56.607Z,480
2018-04-28T11:31:56.860Z,395
2018-04-28T11:32:57.026Z,365
2018-04-28T11:33:56.841Z,315
2018-04-28T11:34:57.103Z,320
2018-04-28T11:35:57.096Z,355
2018-04-28T11:36:56.548Z,370
2018-04-28T11:37:56.812Z,365
2018-04-28T11:38:56.532Z,350
2018-04-28T11:39:56.810Z,335
2018-04-28T11:40:56.781Z,340
2018-04-28T11:41:56.770Z,340
2018-04-28T11:42:57.029Z,355
2018-04-28T11:43:57.281Z,350
2018-04-28T11:44:56.218Z,355
2018-04-28T11:45:56.739Z,360
2018-04-28T11:46:57.013Z,390
2018-04-28T11:47:56.730Z,440
2018-04-28T11:48:57.018Z,560
2018-04-28T11:49:56.722Z,525
2018-04-28T11:50:56.966Z,510
2018-04-28T11:51:56.430Z,545
2018-04-28T11:52:56.433Z,695
2018-04-28T11:53:56.433Z,1905
2018-04-28T11:54:57.420Z,555
2018-04-28T11:55:56.702Z,465
2018-04-28T11:56:56.401Z,1270
2018-04-28T11:57:56.614Z,410
2018-04-28T11:58:57.338Z,320
2018-04-28T11:59:56.931Z,400
2018-04-28T12:00:56.911Z,445
2018-04-28T12:01:56.636Z,575
2018-04-28T12:02:56.429Z,920
2018-04-28T12:03:56.598Z,720
2018-04-28T12:04:56.625Z,490
2018-04-28T12:05:57.550Z,430
2018-04-28T12:06:56.866Z,425
2018-04-28T12:07:56.838Z,450
2018-04-28T12:08:56.317Z,510
2018-04-28T12:09:56.843Z,515
2018-04-28T12:10:57.096Z,560
2018-04-28T12:11:56.565Z,595
2018-04-28T12:12:56.634Z,625
2018-04-28T12:13:56.567Z,1575
2018-04-28T12:14:56.543Z,670
2018-04-28T12:15:56.271Z,1855
2018-04-28T12:16:56.513Z,1295
2018-04-28T12:17:56.241Z,805
2018-04-28T12:18:56.511Z,700
2018-04-28T12:19:56.954Z,645
2018-04-28T12:20:56.895Z,1955
2018-04-28T12:21:56.478Z,1965
2018-04-28T12:22:56.244Z,975
2018-04-28T12:23:56.211Z,2025
2018-04-28T12:24:56.200Z,1995
2018-04-28T12:25:56.463Z,710
2018-04-28T12:26:56.189Z,900
2018-04-28T12:27:56.763Z,450
2018-04-28T12:28:56.178Z,390
2018-04-28T12:29:56.414Z,350
2018-04-28T12:30:55.903Z,315
2018-04-28T12:31:56.433Z,280
2018-04-28T12:32:56.175Z,245
2018-04-28T12:33:56.695Z,220
2018-04-28T12:34:56.144Z,205
2018-04-28T12:35:56.487Z,200
2018-04-28T12:36:55.874Z,195
2018-04-28T12:37:56.140Z,200
2018-04-28T12:38:56.665Z,200
2018-04-28T12:39:56.390Z,200
2018-04-28T12:40:56.391Z,200
2018-04-28T12:41:56.381Z,210
2018-04-28T12:42:56.368Z,225
2018-04-28T12:43:56.635Z,240
2018-04-28T12:44:56.355Z,245
2018-04-28T12:45:56.359Z,265
2018-04-28T12:46:56.613Z,305
2018-04-28T12:47:56.871Z,345
2018-04-28T12:48:56.331Z,380
2018-04-28T12:49:56.320Z,400
2018-04-28T12:50:56.365Z,420
2018-04-28T12:51:56.577Z,410
2018-04-28T12:52:56.567Z,375
2018-04-28T12:53:56.302Z,335
2018-04-28T12:54:56.018Z,305
2018-04-28T12:55:56.273Z,285
2018-04-28T12:56:56.276Z,290
2018-04-28T12:57:55.999Z,305
2018-04-28T12:58:56.798Z,345
2018-04-28T12:59:56.512Z,390
2018-04-28T13:00:56.236Z,395
2018-04-28T13:01:56.491Z,410
2018-04-28T13:02:56.750Z,535
2018-04-28T13:03:56.225Z,625
2018-04-28T13:04:56.470Z,495
2018-04-28T13:05:56.196Z,390
2018-04-28T13:06:56.191Z,375
2018-04-28T13:07:56.172Z,375
2018-04-28T13:08:55.909Z,350
2018-04-28T13:09:56.160Z,365
2018-04-28T13:10:56.207Z,345
2018-04-28T13:11:56.416Z,325
2018-04-28T13:12:56.144Z,310
2018-04-28T13:13:56.130Z,365
2018-04-28T13:14:56.393Z,460
2018-04-28T13:15:56.112Z,460
2018-04-28T13:16:55.577Z,955
2018-04-28T13:17:56.632Z,1195
2018-04-28T13:18:56.364Z,580
2018-04-28T13:19:56.082Z,530
2018-04-28T13:20:56.077Z,975
2018-04-28T13:21:55.799Z,645
2018-04-28T13:22:56.766Z,420
2018-04-28T13:23:56.312Z,420
2018-04-28T13:24:56.051Z,425
2018-04-28T13:25:55.833Z,410
2018-04-28T13:26:56.745Z,385
2018-04-28T13:27:56.019Z,420
2018-04-28T13:28:56.016Z,425
2018-04-28T13:29:56.000Z,420
2018-04-28T13:30:55.993Z,1180
2018-04-28T13:31:56.252Z,460
2018-04-28T13:32:55.720Z,1415
2018-04-28T13:33:56.510Z,430
2018-04-28T13:34:56.500Z,335
2018-04-28T13:35:55.964Z,290
2018-04-28T13:36:55.951Z,275
2018-04-28T13:37:56.214Z,300
2018-04-28T13:38:55.936Z,330
2018-04-28T13:39:56.460Z,385
2018-04-28T13:40:55.921Z,500
2018-04-28T13:41:55.916Z,695
2018-04-28T13:42:55.907Z,500
2018-04-28T13:43:56.167Z,445
2018-04-28T13:44:56.160Z,385
2018-04-28T13:45:55.356Z,365
2018-04-28T13:46:55.881Z,385
2018-04-28T13:47:55.882Z,330
2018-04-28T13:48:55.873Z,290
2018-04-28T13:49:56.118Z,265
2018-04-28T13:50:55.586Z,260
2018-04-28T13:51:56.111Z,275
2018-04-28T13:52:56.103Z,300
2018-04-28T13:53:55.572Z,310
2018-04-28T13:54:55.822Z,315
2018-04-28T13:55:55.896Z,330
2018-04-28T13:56:56.068Z,285
2018-04-28T13:57:56.064Z,250
2018-04-28T13:58:56.051Z,230
2018-04-28T13:59:55.785Z,190
2018-04-28T14:00:55.773Z,175
2018-04-28T14:01:56.299Z,175
2018-04-28T14:02:56.292Z,175
2018-04-28T14:03:56.012Z,190
2018-04-28T14:04:55.469Z,200
2018-04-28T14:05:55.739Z,230